Time;durP1;ratioP1;P1;durP2;ratioP2;P2;SDS_P1;SDS_P2;PMS_P1;PMS_P2;Temp;Humidity;BMP_temperature;BMP_pressure;BME280_temperature;BME280_humidity;BME280_pressure;Samples;Min_cycle;Max_cycle;Signal;HPM_P1;HPM_P2
2021/06/16 00:01:12;;;;;;;7.10;4.50;;;;;;;19.14;77.79;99407.48;1769631;78;21145;-79
2021/06/16 00:03:42;;;;;;;7.72;4.60;;;;;;;19.15;77.57;99404.94;1759431;81;21117;-78
2021/06/16 00:06:10;;;;;;;6.20;4.62;;;;;;;19.14;77.30;99411.65;1769415;78;21127;-80
2021/06/16 00:08:38;;;;;;;5.92;4.42;;;;;;;19.13;77.48;99412.78;1776574;81;21567;-80
2021/06/16 00:11:08;;;;;;;9.30;5.08;;;;;;;19.13;77.62;99406.41;1766514;78;21164;-78
2021/06/16 00:13:37;;;;;;;8.45;4.85;;;;;;;19.14;78.31;99401.12;1758249;81;21144;-79
2021/06/16 00:16:05;;;;;;;;;;;;;;;19.12;78.04;99392.31;1767539;78;21301;-80
2021/06/16 00:18:33;;;;;;;7.20;4.35;;;;;;;19.14;77.74;99395.01;1771588;80;20207;-80
2021/06/16 00:21:02;;;;;;;7.90;4.75;;;;;;;19.13;78.09;99394.75;1780812;78;21089;-76
2021/06/16 00:23:29;;;;;;;7.37;4.60;;;;;;;19.12;78.58;99395.91;1725591;83;21268;-74
2021/06/16 00:25:57;;;;;;;7.63;4.47;;;;;;;19.09;77.65;99388.23;1722859;82;21202;-79
2021/06/16 00:30:34;;;;;;;8.23;4.35;;;;;;;19.11;77.77;99389.28;1847692;77;22139;-77
2021/06/16 00:33:02;;;;;;;8.18;4.75;;;;;;;19.07;77.61;99383.59;1782033;79;21730;-79
2021/06/16 00:35:29;;;;;;;7.15;4.42;;;;;;;19.07;77.61;99383.59;1777479;80;21133;-81
2021/06/16 00:37:59;;;;;;;7.03;4.20;;;;;;;19.08;77.50;99387.97;1761312;79;21188;-81
2021/06/16 00:40:28;;;;;;;6.28;4.40;;;;;;;19.08;77.43;99393.52;1756215;81;21329;-81
2021/06/16 00:43:02;;;;;;;6.62;4.65;;;;;;;19.09;77.28;99390.18;1764812;79;21248;-82
2021/06/16 00:45:31;;;;;;;8.43;4.78;;;;;;;19.06;77.25;99398.58;1767198;80;21112;-81
2021/06/16 00:47:59;;;;;;;8.03;4.75;;;;;;;19.03;78.25;99402.00;1747092;79;21152;-80
2021/06/16 00:50:33;;;;;;;8.38;5.05;;;;;;;19.01;78.69;99409.84;1772783;80;21330;-81
2021/06/16 00:53:01;;;;;;;7.58;4.85;;;;;;;18.99;79.73;99409.35;1767642;79;21133;-81
2021/06/16 00:55:29;;;;;;;7.70;5.20;;;;;;;18.98;80.09;99407.70;1771130;79;21167;-81
2021/06/16 00:57:57;;;;;;;9.85;6.75;;;;;;;18.94;80.05;99412.28;1765182;79;21128;-81
2021/06/16 01:00:34;;;;;;;10.05;5.45;;;;;;;18.93;79.54;99407.86;1756590;80;21145;-81
2021/06/16 01:03:47;;;;;;;9.65;5.87;;;;;;;18.94;79.68;99415.05;1742383;80;21264;-82
2021/06/16 01:06:21;;;;;;;9.05;5.70;;;;;;;18.91;79.64;99419.29;1757670;80;21155;-81
2021/06/16 01:09:00;;;;;;;10.40;5.40;;;;;;;18.91;79.70;99422.63;1760438;79;21139;-82
2021/06/16 01:11:28;;;;;;;8.88;5.55;;;;;;;18.92;80.03;99426.45;1747079;80;21568;-75
2021/06/16 01:14:03;;;;;;;8.15;5.60;;;;;;;18.91;79.72;99427.61;1751861;79;21675;-74
2021/06/16 01:16:42;;;;;;;14.05;6.15;;;;;;;18.92;79.49;99432.00;1728408;80;21600;-74
2021/06/16 01:19:46;;;;;;;13.58;6.53;;;;;;;18.93;79.36;99419.78;1765183;79;21622;-74
2021/06/16 01:23:11;;;;;;;13.98;9.08;;;;;;;18.96;79.68;99428.02;1746766;82;21178;-74
2021/06/16 01:26:04;;;;;;;16.97;9.93;;;;;;;18.98;79.60;99434.05;1752248;79;21598;-74
2021/06/16 01:28:37;;;;;;;14.45;10.05;;;;;;;18.97;80.35;99444.92;1698640;84;21208;-81
2021/06/16 01:31:05;;;;;;;16.02;9.85;;;;;;;18.97;80.68;99451.85;1711349;81;21276;-80
2021/06/16 01:33:36;;;;;;;17.00;8.60;;;;;;;18.96;81.06;99452.98;1723225;83;21184;-80
2021/06/16 01:36:05;;;;;;;10.23;7.50;;;;;;;18.93;80.59;99457.78;1702827;81;21155;-82
2021/06/16 01:38:33;;;;;;;11.97;8.18;;;;;;;18.82;80.85;99465.57;1723648;83;21244;-80
2021/06/16 01:41:02;;;;;;;13.32;8.28;;;;;;;18.77;81.26;99466.31;1718937;81;21327;-81
2021/06/16 01:43:30;;;;;;;14.07;7.83;;;;;;;18.73;81.47;99469.46;1721128;83;21276;-78
2021/06/16 01:46:00;;;;;;;11.95;7.58;;;;;;;18.73;81.49;99472.23;1693275;83;21291;-80
2021/06/16 01:48:28;;;;;;;11.10;6.95;;;;;;;18.67;81.27;99467.40;1727263;83;21200;-81
2021/06/16 01:50:56;;;;;;;10.30;7.00;;;;;;;18.66;81.71;99464.96;1720858;81;21145;-80
2021/06/16 01:53:24;;;;;;;10.97;6.73;;;;;;;18.62;81.80;99452.30;1723461;83;21260;-80
2021/06/16 01:55:52;;;;;;;11.97;7.67;;;;;;;18.61;82.35;99445.14;1716829;81;21166;-81
2021/06/16 01:58:20;;;;;;;9.75;7.42;;;;;;;18.58;82.65;99438.84;1698300;84;21220;-80
2021/06/16 02:00:48;;;;;;;12.13;7.53;;;;;;;18.57;82.75;99445.52;1710281;81;21290;-80
2021/06/16 02:03:16;;;;;;;;;;;;;;;18.57;82.99;99446.11;1700960;84;21641;-80
2021/06/16 02:05:44;;;;;;;14.53;7.67;;;;;;;18.55;83.32;99446.97;1698236;83;20229;-80
2021/06/16 02:08:15;;;;;;;14.58;7.80;;;;;;;18.51;83.20;99448.77;1696984;83;21550;-80
2021/06/16 02:10:46;;;;;;;11.50;7.80;;;;;;;18.51;83.09;99452.92;1714694;83;21281;-80
2021/06/16 02:13:17;;;;;;;11.90;7.47;;;;;;;18.47;83.38;99445.80;1713985;81;21169;-79
2021/06/16 02:15:56;;;;;;;12.50;7.25;;;;;;;18.47;84.00;99451.94;1708990;83;21144;-80
2021/06/16 02:18:29;;;;;;;9.70;7.08;;;;;;;18.45;83.77;99459.70;1697967;81;21163;-79
2021/06/16 02:20:57;;;;;;;10.28;6.60;;;;;;;18.44;84.13;99469.17;1698162;83;21240;-80
2021/06/16 02:23:25;;;;;;;11.30;6.67;;;;;;;18.42;83.91;99468.67;1670064;83;21204;-79
2021/06/16 02:25:53;;;;;;;9.73;7.05;;;;;;;18.35;84.05;99472.70;1713488;82;21163;-82
2021/06/16 02:28:21;;;;;;;11.18;6.55;;;;;;;18.34;84.56;99466.91;1705243;81;21706;-81
2021/06/16 02:30:49;;;;;;;9.43;6.22;;;;;;;18.34;84.67;99471.06;1705724;82;21162;-81
2021/06/16 02:33:17;;;;;;;12.05;6.83;;;;;;;18.34;84.82;99479.38;1706323;81;21154;-81
2021/06/16 02:35:44;;;;;;;11.40;6.47;;;;;;;18.34;84.76;99479.97;1714552;83;21153;-82
2021/06/16 02:38:13;;;;;;;11.53;6.83;;;;;;;18.34;84.37;99482.14;1726180;81;21195;-81
2021/06/16 02:40:41;;;;;;;9.45;6.72;;;;;;;18.35;84.19;99478.81;1722805;82;21146;-81
2021/06/16 02:43:10;;;;;;;11.18;6.33;;;;;;;18.35;84.26;99483.79;1705553;81;21183;-81
2021/06/16 02:45:39;;;;;;;10.35;6.37;;;;;;;18.33;84.33;99480.53;1735157;81;21283;-75
2021/06/16 02:48:08;;;;;;;11.63;6.72;;;;;;;18.35;84.23;99482.97;1735174;82;21144;-74
2021/06/16 02:50:36;;;;;;;13.45;8.25;;;;;;;18.36;84.32;99485.44;1718683;81;21258;-74
2021/06/16 02:53:12;;;;;;;7.65;5.62;;;;;;;18.35;84.56;99482.41;1717349;82;21271;-74
2021/06/16 02:55:40;;;;;;;14.68;6.42;;;;;;;18.32;83.83;99486.37;1693026;82;21141;-75
2021/06/16 02:58:09;;;;;;;;;;;;;;;18.30;84.02;99474.80;1687962;84;21159;-75
2021/06/16 03:00:37;;;;;;;8.08;5.28;;;;;;;18.31;83.60;99480.03;1710240;82;20179;-75
2021/06/16 03:03:06;;;;;;;9.18;6.90;;;;;;;18.35;83.43;99478.81;1713490;84;21917;-75
2021/06/16 03:05:33;;;;;;;;;;;;;;;18.35;82.95;99478.25;1709467;82;21239;-75
2021/06/16 03:08:03;;;;;;;9.53;6.22;;;;;;;18.36;82.80;99479.89;1713329;84;20191;-75
2021/06/16 03:10:31;;;;;;;9.45;5.08;;;;;;;18.37;82.51;99469.61;1720292;80;21308;-75
2021/06/16 03:13:01;;;;;;;6.97;5.00;;;;;;;18.36;82.25;99468.81;1713642;84;21367;-75
2021/06/16 03:15:29;;;;;;;8.93;4.92;;;;;;;18.38;82.06;99455.45;1672948;82;21174;-76
2021/06/16 03:17:58;;;;;;;6.78;4.55;;;;;;;18.37;82.16;99452.98;1713603;84;21175;-82
2021/06/16 03:20:27;;;;;;;;;;;;;;;18.32;82.04;99460.87;1716484;80;21292;-81
2021/06/16 03:22:55;;;;;;;6.12;4.65;;;;;;;18.31;82.20;99462.03;1729437;82;20209;-80
2021/06/16 03:25:23;;;;;;;7.55;4.37;;;;;;;18.30;82.43;99463.15;1729309;82;21251;-81
2021/06/16 03:27:51;;;;;;;6.92;4.40;;;;;;;18.30;81.93;99459.55;1720636;80;21189;-74
2021/06/16 03:30:22;;;;;;;7.03;4.15;;;;;;;18.27;82.43;99458.80;1727063;82;21282;-74
2021/06/16 03:32:53;;;;;;;8.00;4.55;;;;;;;18.22;82.42;99471.41;1713527;81;21109;-75
2021/06/16 03:35:21;;;;;;;8.28;5.00;;;;;;;18.16;83.46;99479.62;1726661;82;21142;-81
2021/06/16 03:37:51;;;;;;;6.70;4.53;;;;;;;18.10;84.00;99495.55;1705503;81;21275;-81
2021/06/16 03:40:19;;;;;;;5.83;4.12;;;;;;;18.07;84.22;99510.02;1705772;83;21651;-81
2021/06/16 03:42:48;;;;;;;6.92;4.65;;;;;;;18.07;84.07;99516.94;1677543;83;21188;-71
2021/06/16 03:45:16;;;;;;;6.37;4.05;;;;;;;18.04;84.43;99509.26;1715236;82;21127;-71
2021/06/16 03:47:45;;;;;;;6.58;4.05;;;;;;;18.01;84.60;99512.66;1647783;84;21308;-71
2021/06/16 03:50:18;;;;;;;6.35;3.47;;;;;;;17.99;84.14;99516.31;1707230;83;21615;-71
2021/06/16 03:52:46;;;;;;;7.55;3.77;;;;;;;17.98;83.72;99510.53;1724173;81;21145;-71
2021/06/16 03:55:17;;;;;;;7.37;3.92;;;;;;;17.99;84.04;99505.23;1729913;81;21144;-71
2021/06/16 03:57:46;;;;;;;7.17;3.60;;;;;;;17.96;83.56;99492.60;1751659;81;21176;-70
2021/06/16 04:00:15;;;;;;;9.95;5.60;;;;;;;17.95;83.69;99479.32;1729847;81;21161;-71
2021/06/16 04:02:46;;;;;;;6.20;3.67;;;;;;;17.92;83.62;99473.02;1728519;81;21180;-69
2021/06/16 04:05:14;;;;;;;6.72;3.35;;;;;;;17.94;83.64;99477.67;1678406;83;21259;-71
2021/06/16 04:07:44;;;;;;;6.60;3.90;;;;;;;17.93;83.82;99476.05;1699443;83;21613;-71
2021/06/16 04:10:12;;;;;;;5.33;3.37;;;;;;;17.93;83.88;99476.61;1672054;83;21375;-71
2021/06/16 04:12:41;;;;;;;8.90;3.62;;;;;;;17.92;83.83;99479.12;1700575;83;21142;-80
2021/06/16 04:15:11;;;;;;;6.12;3.47;;;;;;;17.91;83.56;99471.97;1706529;81;21172;-80
2021/06/16 04:17:39;;;;;;;5.67;3.87;;;;;;;17.92;83.64;99476.35;1728198;82;21683;-80
2021/06/16 04:20:09;;;;;;;5.85;3.58;;;;;;;17.94;83.39;99479.05;1709608;81;21163;-81
2021/06/16 04:22:38;;;;;;;8.33;3.12;;;;;;;17.95;83.09;99484.86;1729044;83;21172;-82
2021/06/16 04:25:08;;;;;;;5.95;3.20;;;;;;;17.96;82.76;99489.24;1713393;81;21772;-82
2021/06/16 04:27:37;;;;;;;8.63;3.83;;;;;;;17.96;82.79;99501.70;1676294;83;21151;-82
2021/06/16 04:30:07;;;;;;;7.33;3.47;;;;;;;17.97;83.05;99501.14;1713254;81;21184;-81
2021/06/16 04:32:40;;;;;;;8.50;3.90;;;;;;;17.95;83.22;99497.31;1705284;83;21172;-80
2021/06/16 04:35:09;;;;;;;7.25;3.83;;;;;;;17.89;83.57;99497.18;1721795;81;21740;-82
2021/06/16 04:37:37;;;;;;;6.67;3.47;;;;;;;17.89;84.01;99501.89;1729261;82;21469;-82
2021/06/16 04:40:06;;;;;;;10.00;3.95;;;;;;;17.86;83.56;99501.95;1723421;81;21273;-81
2021/06/16 04:42:35;;;;;;;6.12;3.70;;;;;;;17.89;83.95;99507.43;1700564;83;21218;-81
2021/06/16 04:45:04;;;;;;;6.85;3.58;;;;;;;17.91;84.24;99516.27;1700260;81;21286;-82
2021/06/16 04:47:33;;;;;;;5.40;3.42;;;;;;;17.91;83.69;99516.27;1716124;83;21306;-79
2021/06/16 04:50:01;;;;;;;8.43;4.05;;;;;;;17.93;83.71;99516.20;1700675;83;21139;-80
2021/06/16 04:52:29;;;;;;;6.62;3.42;;;;;;;17.97;83.33;99518.58;1679203;82;21300;-81
2021/06/16 04:54:57;;;;;;;13.75;5.30;;;;;;;17.97;83.26;99520.53;1719557;82;21220;-82
2021/06/16 04:57:25;;;;;;;11.25;4.65;;;;;;;17.96;84.00;99525.23;1699827;81;21202;-84
2021/06/16 04:59:53;;;;;;;7.12;4.15;;;;;;;17.92;84.35;99524.24;1715981;83;21164;-82
2021/06/16 05:02:21;;;;;;;6.83;4.20;;;;;;;17.89;84.75;99522.66;1683086;83;21161;-79
2021/06/16 05:04:49;;;;;;;10.72;4.85;;;;;;;17.87;85.15;99528.52;1740906;82;21149;-79
2021/06/16 05:07:17;;;;;;;8.75;4.60;;;;;;;17.79;85.91;99525.11;1704881;82;21260;-80
2021/06/16 05:09:45;;;;;;;10.65;5.95;;;;;;;17.71;86.56;99525.86;1734308;82;21203;-81
2021/06/16 05:12:13;;;;;;;8.28;4.12;;;;;;;17.70;87.23;99535.31;1705813;81;21191;-80
2021/06/16 05:14:41;;;;;;;7.85;4.90;;;;;;;17.66;87.19;99537.88;1724233;82;21179;-80
2021/06/16 05:17:09;;;;;;;7.90;4.15;;;;;;;17.63;87.80;99539.08;1714394;81;21189;-80
2021/06/16 05:19:37;;;;;;;;;;;;;;;17.61;87.97;99535.22;1679046;84;21597;-79
2021/06/16 05:22:13;;;;;;;6.80;3.80;;;;;;;17.61;88.26;99531.62;1733713;81;20501;-81
2021/06/16 05:24:41;;;;;;;7.03;4.30;;;;;;;17.56;88.02;99531.75;1713110;83;21199;-79
2021/06/16 05:27:09;;;;;;;;;;;;;;;17.54;88.52;99529.30;1716019;83;21140;-80
2021/06/16 05:29:37;;;;;;;6.72;3.87;;;;;;;17.54;87.88;99528.48;1696213;82;20179;-80
2021/06/16 05:32:06;;;;;;;7.15;3.90;;;;;;;17.54;88.38;99527.09;1728087;83;21186;-80
2021/06/16 05:34:35;;;;;;;5.97;3.20;;;;;;;17.52;88.29;99527.95;1676788;83;21308;-79
2021/06/16 05:37:07;;;;;;;7.85;3.37;;;;;;;17.51;88.03;99527.68;1700637;83;21183;-79
2021/06/16 05:39:35;;;;;;;9.68;4.10;;;;;;;17.49;88.26;99529.39;1703099;82;21160;-78
2021/06/16 05:42:03;;;;;;;7.00;3.90;;;;;;;17.47;88.56;99524.73;1712833;84;21180;-80
2021/06/16 05:44:32;;;;;;;9.90;4.10;;;;;;;17.49;88.99;99525.23;1696754;82;21161;-80
2021/06/16 05:46:59;;;;;;;7.65;3.70;;;;;;;17.54;89.30;99520.18;1705747;83;21458;-80
2021/06/16 05:49:27;;;;;;;10.78;4.75;;;;;;;17.58;89.22;99519.83;1705436;81;21611;-81
2021/06/16 05:51:55;;;;;;;6.77;4.20;;;;;;;17.59;89.50;99509.81;1722175;81;21160;-79
2021/06/16 05:54:23;;;;;;;;;;;;;;;17.62;89.55;99506.98;1720534;81;21434;-80
2021/06/16 05:56:51;;;;;;;8.95;4.35;;;;;;;17.65;89.62;99495.30;1737189;81;20575;-79
2021/06/16 05:59:18;;;;;;;11.13;4.77;;;;;;;17.68;89.27;99491.91;1756863;81;21720;-79
2021/06/16 06:01:46;;;;;;;7.70;4.85;;;;;;;17.71;89.47;99485.72;1715180;82;21687;-80
2021/06/16 06:04:14;;;;;;;10.58;4.33;;;;;;;17.70;89.13;99483.55;1729212;83;21172;-79
2021/06/16 06:06:42;;;;;;;10.08;4.10;;;;;;;17.71;88.90;99484.34;1714500;81;21271;-79
2021/06/16 06:09:10;;;;;;;7.85;3.98;;;;;;;17.71;88.84;99490.70;1729991;81;21192;-74
2021/06/16 06:11:39;;;;;;;6.97;3.77;;;;;;;17.75;88.63;99502.80;1705300;81;21138;-74
2021/06/16 06:14:07;;;;;;;6.55;3.90;;;;;;;17.81;88.24;99515.92;1713583;82;21192;-74
2021/06/16 06:16:36;;;;;;;9.08;4.80;;;;;;;17.89;88.59;99519.89;1722322;81;21169;-75
2021/06/16 06:19:04;;;;;;;8.18;4.78;;;;;;;17.96;89.71;99535.52;1718879;82;21199;-73
2021/06/16 06:21:32;;;;;;;8.98;5.97;;;;;;;18.03;89.67;99561.64;1706628;81;21321;-73
2021/06/16 06:24:02;;;;;;;15.68;6.83;;;;;;;18.08;89.83;99585.62;1715220;82;21133;-82
2021/06/16 06:26:33;;;;;;;9.20;5.75;;;;;;;18.11;89.85;99589.97;1702057;81;21185;-81
2021/06/16 06:29:01;;;;;;;10.40;5.97;;;;;;;18.14;89.71;99585.76;1725048;81;21283;-79
2021/06/16 06:31:30;;;;;;;11.63;6.15;;;;;;;18.17;89.11;99587.88;1718508;81;21280;-80
2021/06/16 06:33:59;;;;;;;11.28;5.83;;;;;;;18.21;88.86;99594.44;1706459;83;21240;-86
2021/06/16 06:36:28;;;;;;;9.58;6.05;;;;;;;18.25;88.60;99588.51;1697281;81;21149;-87
2021/06/16 06:38:56;;;;;;;10.10;5.95;;;;;;;18.28;87.44;99583.17;1720797;83;21689;-87
2021/06/16 06:41:24;;;;;;;10.32;5.28;;;;;;;18.28;87.52;99580.40;1701200;83;21186;-79
2021/06/16 06:43:55;;;;;;;12.82;6.15;;;;;;;18.34;87.65;99582.48;1700983;81;21245;-79
2021/06/16 06:46:23;;;;;;;10.30;5.87;;;;;;;18.39;87.70;99584.53;1714662;83;21293;-80
2021/06/16 06:48:52;;;;;;;11.12;5.80;;;;;;;18.47;86.72;99587.14;1700091;81;21193;-78
2021/06/16 06:51:20;;;;;;;12.70;6.47;;;;;;;18.54;85.93;99595.84;1700765;83;21163;-84
2021/06/16 06:53:48;;;;;;;13.68;7.00;;;;;;;18.60;85.47;99597.89;1703124;83;21208;-86
2021/06/16 06:56:15;;;;;;;15.30;7.70;;;;;;;18.61;85.30;99593.99;1721521;81;21580;-78
2021/06/16 06:58:43;;;;;;;8.38;6.15;;;;;;;18.63;86.08;99577.86;1719666;81;21160;-76
2021/06/16 07:01:11;;;;;;;;;;;;;;;18.64;85.85;99579.51;1731724;81;21279;-76
2021/06/16 07:03:39;;;;;;;9.48;6.28;;;;;;;18.66;85.97;99589.70;1702927;81;20173;-77
2021/06/16 07:06:07;;;;;;;10.50;6.95;;;;;;;18.68;86.70;99597.95;1716909;82;21446;-72
2021/06/16 07:08:36;;;;;;;11.73;6.28;;;;;;;18.70;86.01;99597.63;1722332;81;21150;-72
2021/06/16 07:11:04;;;;;;;9.00;6.37;;;;;;;18.70;86.42;99599.01;1708618;83;21183;-73
2021/06/16 07:13:32;;;;;;;11.10;6.12;;;;;;;18.74;86.95;99597.25;1712236;82;21261;-73
2021/06/16 07:16:04;;;;;;;10.95;5.80;;;;;;;18.75;86.21;99597.48;1729536;82;21576;-71
2021/06/16 07:18:32;;;;;;;12.95;6.05;;;;;;;18.77;86.67;99609.09;1735154;82;21140;-72
2021/06/16 07:21:00;;;;;;;14.43;6.65;;;;;;;18.78;87.04;99607.95;1738955;80;21141;-72
2021/06/16 07:23:28;;;;;;;15.35;7.03;;;;;;;18.78;87.44;99608.77;1676449;83;21691;-71
2021/06/16 07:25:56;;;;;;;15.35;5.85;;;;;;;18.78;87.58;99605.17;1706125;82;21113;-70
2021/06/16 07:28:24;;;;;;;;;;;;;;;18.75;88.56;99600.26;1708504;82;21164;-70
2021/06/16 07:30:52;;;;;;;13.75;6.65;;;;;;;18.71;90.09;99599.27;1718101;81;20238;-71
2021/06/16 07:33:20;;;;;;;16.73;6.97;;;;;;;18.64;90.92;99590.03;1730995;82;21136;-72
2021/06/16 07:35:50;;;;;;;14.60;7.00;;;;;;;18.58;91.76;99598.78;1724491;81;21177;-71
2021/06/16 07:38:18;;;;;;;13.00;7.70;;;;;;;18.50;92.17;99606.47;1724062;82;21212;-72
2021/06/16 07:40:45;;;;;;;12.80;7.07;;;;;;;18.38;92.40;99596.77;1722897;81;21179;-71
2021/06/16 07:43:15;;;;;;;10.55;6.53;;;;;;;18.27;92.86;99591.22;1721344;82;21647;-76
2021/06/16 07:45:44;;;;;;;8.40;6.15;;;;;;;18.18;93.50;99588.14;1727418;81;21169;-76
2021/06/16 07:48:13;;;;;;;8.85;6.15;;;;;;;18.07;93.36;99580.64;1706184;81;21210;-74
2021/06/16 07:50:42;;;;;;;12.45;6.40;;;;;;;17.93;92.88;99581.27;1672168;81;21193;-75
2021/06/16 07:53:10;;;;;;;10.18;6.53;;;;;;;17.87;94.07;99577.53;1714030;83;21710;-74
2021/06/16 07:55:40;;;;;;;9.53;4.85;;;;;;;17.83;94.20;99585.66;1682064;83;21188;-76
2021/06/16 07:58:08;;;;;;;8.33;5.17;;;;;;;17.78;93.09;99584.39;1719992;81;21179;-74
2021/06/16 08:00:40;;;;;;;9.03;4.70;;;;;;;17.73;92.67;99577.00;1717083;83;21139;-75
2021/06/16 08:03:08;;;;;;;6.97;4.65;;;;;;;17.70;92.03;99573.50;1712853;81;21694;-76
2021/06/16 08:05:38;;;;;;;9.43;4.97;;;;;;;17.68;92.04;99576.33;1712208;83;21596;-76
2021/06/16 08:08:07;;;;;;;10.20;6.03;;;;;;;17.71;93.08;99582.03;1715057;81;21156;-76
2021/06/16 08:10:34;;;;;;;7.70;5.12;;;;;;;17.76;94.01;99595.77;1723055;82;21279;-73
2021/06/16 08:13:03;;;;;;;8.18;4.47;;;;;;;17.81;93.31;99603.13;1722206;81;21152;-74
2021/06/16 08:15:33;;;;;;;6.75;4.37;;;;;;;17.86;93.10;99603.01;1725470;82;21200;-75
2021/06/16 08:18:01;;;;;;;7.58;4.72;;;;;;;17.96;93.08;99607.52;1723452;81;21766;-75
2021/06/16 08:20:29;;;;;;;9.67;4.63;;;;;;;18.07;93.34;99608.33;1722787;81;21634;-75
2021/06/16 08:22:56;;;;;;;9.75;4.50;;;;;;;18.21;93.79;99605.52;1709396;82;21391;-73
2021/06/16 08:25:24;;;;;;;13.72;5.60;;;;;;;18.34;93.21;99602.66;1716733;82;21213;-75
2021/06/16 08:27:54;;;;;;;10.58;5.22;;;;;;;18.49;92.76;99604.85;1717691;81;21238;-74
2021/06/16 08:30:22;;;;;;;;;;;;;;;18.64;92.62;99612.77;1693912;82;21168;-74
2021/06/16 08:32:50;;;;;;;15.78;4.35;;;;;;;18.80;92.26;99613.98;1727022;81;20540;-75
2021/06/16 08:35:18;;;;;;;7.17;3.85;;;;;;;18.94;90.80;99618.89;1730033;82;21187;-76
2021/06/16 08:37:46;;;;;;;7.65;3.30;;;;;;;19.07;90.09;99619.36;1728640;82;21093;-85
2021/06/16 08:40:15;;;;;;;;;;;;;;;19.18;88.05;99626.80;1730005;81;21164;-72
2021/06/16 08:42:43;;;;;;;5.65;3.15;;;;;;;19.28;87.60;99630.68;1732703;82;20763;-73
2021/06/16 08:45:12;;;;;;;6.28;3.40;;;;;;;19.35;87.00;99628.28;1701499;82;21625;-76
2021/06/16 08:47:41;;;;;;;6.15;2.80;;;;;;;19.43;85.62;99629.70;1735122;82;21656;-77
2021/06/16 08:50:11;;;;;;;6.40;3.08;;;;;;;19.49;83.53;99627.05;1706760;81;21303;-75
2021/06/16 08:52:40;;;;;;;6.70;2.80;;;;;;;19.56;83.83;99631.55;1724012;81;21625;-75
2021/06/16 08:55:10;;;;;;;;;;;;;;;19.62;83.95;99630.27;1711761;81;21182;-84
2021/06/16 08:57:38;;;;;;;8.28;3.20;;;;;;;19.69;84.48;99629.78;1728001;83;20515;-77
2021/06/16 09:00:09;;;;;;;5.40;2.58;;;;;;;19.76;84.28;99628.72;1716902;81;21164;-75
2021/06/16 09:02:38;;;;;;;3.50;2.10;;;;;;;19.81;82.23;99630.55;1700818;83;21207;-82
2021/06/16 09:05:06;;;;;;;5.55;2.60;;;;;;;19.82;80.37;99632.17;1709384;81;21156;-82
2021/06/16 09:07:37;;;;;;;5.60;2.65;;;;;;;19.86;81.21;99635.95;1712174;82;21212;-83
2021/06/16 09:10:18;;;;;;;7.50;2.95;;;;;;;19.92;80.96;99636.02;1728052;81;21194;-75
2021/06/16 09:12:56;;;;;;;7.00;2.90;;;;;;;19.98;81.77;99636.95;1729200;83;21172;-81
2021/06/16 09:15:27;;;;;;;5.67;3.50;;;;;;;20.08;82.11;99631.64;1724446;81;21424;-82
2021/06/16 09:18:08;;;;;;;7.58;2.87;;;;;;;20.18;80.85;99635.48;1714882;81;21210;-81
2021/06/16 09:20:44;;;;;;;5.95;2.95;;;;;;;20.33;80.14;99632.23;1726093;81;21942;-73
2021/06/16 09:23:21;;;;;;;4.95;2.60;;;;;;;20.53;79.77;99630.73;1671877;84;21293;-84
2021/06/16 09:26:14;;;;;;;6.90;3.20;;;;;;;20.76;78.43;99637.17;1700897;81;21604;-76
2021/06/16 09:28:49;;;;;;;7.75;3.20;;;;;;;20.97;78.16;99637.84;1712546;83;21224;-76
2021/06/16 09:31:19;;;;;;;5.10;2.83;;;;;;;21.17;79.47;99635.77;1723493;81;21264;-76
2021/06/16 09:33:48;;;;;;;7.58;3.17;;;;;;;21.33;79.70;99635.43;1715295;83;21176;-76
2021/06/16 09:36:20;;;;;;;7.67;3.25;;;;;;;21.45;80.14;99636.35;1727211;81;21552;-76
2021/06/16 09:38:49;;;;;;;7.55;2.80;;;;;;;21.55;80.91;99634.36;1705689;82;21140;-77
2021/06/16 09:41:22;;;;;;;5.40;3.02;;;;;;;21.63;80.05;99627.33;1729651;83;21276;-75
2021/06/16 09:43:56;;;;;;;6.65;2.90;;;;;;;21.76;79.32;99629.05;1700390;81;21267;-78
2021/06/16 09:46:24;;;;;;;6.30;3.05;;;;;;;21.88;76.99;99624.19;1700639;84;21211;-76
2021/06/16 09:48:52;;;;;;;5.83;3.12;;;;;;;22.00;76.21;99624.26;1725032;81;21168;-75
2021/06/16 09:51:27;;;;;;;5.50;2.77;;;;;;;22.08;73.31;99624.77;1729362;82;21189;-74
2021/06/16 09:54:18;;;;;;;6.17;3.00;;;;;;;22.14;74.31;99627.01;1715070;81;21491;-75
2021/06/16 09:57:00;;;;;;;6.42;3.02;;;;;;;22.23;74.58;99619.16;1741051;81;21180;-75
2021/06/16 09:59:43;;;;;;;6.87;3.10;;;;;;;22.34;74.14;99614.81;1700442;81;21209;-75
2021/06/16 10:02:20;;;;;;;7.17;2.40;;;;;;;22.49;74.02;99611.38;1722846;82;21212;-75
2021/06/16 10:04:54;;;;;;;4.65;2.62;;;;;;;22.59;71.33;99599.19;1708672;81;21417;-73
2021/06/16 10:07:24;;;;;;;9.35;3.70;;;;;;;22.68;71.81;99599.14;1729223;83;21176;-75
2021/06/16 10:10:02;;;;;;;7.53;3.40;;;;;;;22.78;73.15;99596.48;1706152;81;21201;-76
2021/06/16 10:12:35;;;;;;;7.08;3.87;;;;;;;22.87;73.52;99591.04;1686073;83;21224;-76
2021/06/16 10:15:10;;;;;;;5.37;2.98;;;;;;;22.98;75.08;99588.05;1726361;81;21137;-77
2021/06/16 10:17:39;;;;;;;5.30;2.70;;;;;;;23.08;73.66;99583.98;1700448;83;21218;-75
2021/06/16 10:20:08;;;;;;;5.75;2.60;;;;;;;23.11;69.23;99575.73;1700681;81;21210;-75
2021/06/16 10:22:36;;;;;;;4.40;2.52;;;;;;;23.16;69.58;99577.48;1700643;83;21182;-75
2021/06/16 10:25:05;;;;;;;5.10;2.70;;;;;;;23.18;68.80;99551.41;1683631;83;21172;-76
2021/06/16 10:27:53;;;;;;;5.03;2.65;;;;;;;23.18;68.80;99551.41;1729541;81;21266;-75
2021/06/16 10:30:24;;;;;;;5.15;2.30;;;;;;;23.18;68.54;99555.03;1720442;81;21611;-74
2021/06/16 10:32:52;;;;;;;3.47;2.27;;;;;;;23.20;67.06;99552.70;1691307;83;21149;-76
2021/06/16 10:35:37;;;;;;;7.45;2.08;;;;;;;23.20;65.91;99540.13;1714017;81;21158;-74
2021/06/16 10:38:18;;;;;;;4.03;2.12;;;;;;;23.24;65.00;99531.30;1695146;83;21169;-74
2021/06/16 10:40:52;;;;;;;5.20;2.25;;;;;;;23.27;63.47;99518.63;1717376;81;21190;-75
2021/06/16 10:43:29;;;;;;;4.53;2.30;;;;;;;23.31;63.49;99513.37;1696351;84;21202;-74
2021/06/16 10:46:13;;;;;;;4.87;1.90;;;;;;;23.34;63.20;99504.30;1705104;81;21168;-74
2021/06/16 10:48:54;;;;;;;3.62;2.10;;;;;;;23.39;63.22;99499.08;1713043;84;21153;-76
2021/06/16 10:51:33;;;;;;;3.62;2.10;;;;;;;23.42;62.01;99487.79;1712610;82;21164;-76
2021/06/16 10:54:15;;;;;;;3.62;2.10;;;;;;;23.44;61.10;99486.27;1765665;81;21160;-75
2021/06/16 10:56:54;;;;;;;4.90;2.05;;;;;;;23.46;62.17;99480.32;1740173;81;21164;-76
2021/06/16 10:59:50;;;;;;;4.50;2.02;;;;;;;23.48;62.56;99485.78;1729526;82;21176;-75
2021/06/16 11:02:36;;;;;;;5.05;2.40;;;;;;;23.52;63.25;99483.11;1711353;81;21311;-75
2021/06/16 11:05:27;;;;;;;7.15;2.52;;;;;;;23.54;63.99;99482.17;1700775;83;21212;-75
2021/06/16 11:07:56;;;;;;;4.60;2.25;;;;;;;23.57;64.30;99483.69;1700179;81;21158;-75
2021/06/16 11:10:24;;;;;;;3.92;2.02;;;;;;;23.65;64.86;99491.70;1670080;84;21138;-75
2021/06/16 11:12:53;;;;;;;9.10;2.90;;;;;;;23.70;64.07;99494.24;1663169;83;21196;-76
2021/06/16 11:15:33;;;;;;;5.60;2.37;;;;;;;23.74;61.87;99504.93;1729779;81;21331;-76
2021/06/16 11:18:06;;;;;;;4.92;2.10;;;;;;;23.78;62.58;99516.44;1726297;81;21611;-85
2021/06/16 11:20:39;;;;;;;6.33;1.80;;;;;;;23.84;61.85;99518.41;1700964;84;21300;-86
2021/06/16 11:23:09;;;;;;;3.05;1.50;;;;;;;23.88;60.39;99529.13;1702482;81;21144;-84
2021/06/16 11:25:40;;;;;;;5.17;1.80;;;;;;;23.93;60.07;99541.45;1674530;83;21158;-82
2021/06/16 11:28:19;;;;;;;3.90;2.05;;;;;;;23.96;62.07;99543.52;1719684;81;21188;-84
2021/06/16 11:30:58;;;;;;;6.17;2.45;;;;;;;23.99;61.96;99549.80;1691749;83;21153;-84
2021/06/16 11:33:32;;;;;;;4.75;1.90;;;;;;;24.05;61.93;99555.39;1716915;81;21140;-81
2021/06/16 11:36:27;;;;;;;4.85;2.15;;;;;;;24.13;63.02;99564.25;1717225;83;21144;-81
2021/06/16 11:39:04;;;;;;;7.12;1.75;;;;;;;24.18;62.15;99575.77;1723365;81;21266;-81
2021/06/16 11:41:32;;;;;;;3.87;2.02;;;;;;;24.23;61.37;99579.70;1694531;82;21284;-83
2021/06/16 11:44:09;;;;;;;6.10;2.30;;;;;;;24.24;61.42;99587.73;1718285;81;21152;-81
2021/06/16 11:46:43;;;;;;;5.55;2.40;;;;;;;24.29;61.09;99590.27;1729124;83;21132;-83
2021/06/16 11:49:20;;;;;;;5.05;2.20;;;;;;;24.33;61.46;99594.00;1720184;81;21164;-85
2021/06/16 11:52:00;;;;;;;3.42;1.80;;;;;;;24.38;60.12;99597.95;1729868;82;21271;-85
2021/06/16 11:54:32;;;;;;;4.58;1.80;;;;;;;24.37;60.19;99592.69;1718774;81;21282;-83